sensor_id;sensor_type;location;lat;lon;timestamp;P1;durP1;ratioP1;P2;durP2;ratioP2
35558;SDS011;21661;50.794;-1.066;2023-04-03T00:01:00;9.05;;;2.45;;
35558;SDS011;21661;50.794;-1.066;2023-04-03T00:03:26;9.73;;;2.83;;
35558;SDS011;21661;50.794;-1.066;2023-04-03T00:05:52;15.52;;;2.60;;
35558;SDS011;21661;50.794;-1.066;2023-04-03T00:08:17;11.15;;;3.15;;
35558;SDS011;21661;50.794;-1.066;2023-04-03T00:10:43;10.25;;;3.00;;
35558;SDS011;21661;50.794;-1.066;2023-04-03T00:13:09;15.88;;;2.55;;
35558;SDS011;21661;50.794;-1.066;2023-04-03T00:15:35;7.70;;;2.05;;
35558;SDS011;21661;50.794;-1.066;2023-04-03T00:18:02;8.25;;;2.33;;
35558;SDS011;21661;50.794;-1.066;2023-04-03T00:20:28;12.43;;;2.25;;
35558;SDS011;21661;50.794;-1.066;2023-04-03T00:22:53;11.45;;;1.98;;
35558;SDS011;21661;50.794;-1.066;2023-04-03T00:25:19;9.88;;;2.80;;
35558;SDS011;21661;50.794;-1.066;2023-04-03T00:27:45;12.10;;;2.58;;
35558;SDS011;21661;50.794;-1.066;2023-04-03T00:30:13;14.90;;;3.17;;
35558;SDS011;21661;50.794;-1.066;2023-04-03T00:32:40;8.77;;;1.85;;
35558;SDS011;21661;50.794;-1.066;2023-04-03T00:35:06;8.30;;;1.88;;
35558;SDS011;21661;50.794;-1.066;2023-04-03T00:37:32;10.48;;;2.45;;
35558;SDS011;21661;50.794;-1.066;2023-04-03T00:39:58;9.07;;;2.20;;
35558;SDS011;21661;50.794;-1.066;2023-04-03T00:42:24;6.07;;;2.10;;
35558;SDS011;21661;50.794;-1.066;2023-04-03T00:47:21;8.52;;;2.10;;
35558;SDS011;21661;50.794;-1.066;2023-04-03T00:49:48;9.73;;;2.30;;
35558;SDS011;21661;50.794;-1.066;2023-04-03T00:52:16;9.60;;;2.47;;
35558;SDS011;21661;50.794;-1.066;2023-04-03T00:54:47;10.27;;;2.00;;
35558;SDS011;21661;50.794;-1.066;2023-04-03T00:57:15;8.43;;;2.20;;
35558;SDS011;21661;50.794;-1.066;2023-04-03T00:59:46;7.57;;;2.17;;
35558;SDS011;21661;50.794;-1.066;2023-04-03T01:02:15;8.85;;;2.47;;
35558;SDS011;21661;50.794;-1.066;2023-04-03T01:04:41;11.23;;;3.33;;
35558;SDS011;21661;50.794;-1.066;2023-04-03T01:07:12;10.40;;;2.53;;
35558;SDS011;21661;50.794;-1.066;2023-04-03T01:09:40;7.90;;;1.70;;
35558;SDS011;21661;50.794;-1.066;2023-04-03T01:12:17;9.00;;;1.90;;
35558;SDS011;21661;50.794;-1.066;2023-04-03T01:14:43;14.95;;;2.13;;
35558;SDS011;21661;50.794;-1.066;2023-04-03T01:22:56;10.38;;;1.95;;
35558;SDS011;21661;50.794;-1.066;2023-04-03T01:25:24;11.98;;;2.10;;
35558;SDS011;21661;50.794;-1.066;2023-04-03T01:27:51;8.88;;;1.83;;
35558;SDS011;21661;50.794;-1.066;2023-04-03T01:30:17;6.38;;;2.08;;
35558;SDS011;21661;50.794;-1.066;2023-04-03T01:32:45;9.27;;;2.33;;
35558;SDS011;21661;50.794;-1.066;2023-04-03T01:35:10;9.60;;;2.13;;
35558;SDS011;21661;50.794;-1.066;2023-04-03T01:37:37;7.25;;;2.53;;
35558;SDS011;21661;50.794;-1.066;2023-04-03T01:40:03;12.77;;;2.20;;
35558;SDS011;21661;50.794;-1.066;2023-04-03T01:42:30;8.13;;;2.00;;
35558;SDS011;21661;50.794;-1.066;2023-04-03T01:44:56;10.05;;;2.05;;
35558;SDS011;21661;50.794;-1.066;2023-04-03T01:47:22;11.27;;;2.25;;
35558;SDS011;21661;50.794;-1.066;2023-04-03T01:49:48;7.13;;;1.85;;
35558;SDS011;21661;50.794;-1.066;2023-04-03T01:52:13;7.15;;;2.15;;
35558;SDS011;21661;50.794;-1.066;2023-04-03T01:54:39;8.27;;;1.83;;
35558;SDS011;21661;50.794;-1.066;2023-04-03T01:57:04;13.82;;;2.20;;
35558;SDS011;21661;50.794;-1.066;2023-04-03T01:59:30;8.07;;;2.08;;
35558;SDS011;21661;50.794;-1.066;2023-04-03T02:01:56;10.23;;;2.53;;
35558;SDS011;21661;50.794;-1.066;2023-04-03T02:04:22;5.82;;;1.98;;
35558;SDS011;21661;50.794;-1.066;2023-04-03T02:06:48;6.40;;;2.75;;
35558;SDS011;21661;50.794;-1.066;2023-04-03T02:09:13;12.80;;;2.28;;
35558;SDS011;21661;50.794;-1.066;2023-04-03T02:11:39;8.13;;;1.92;;
35558;SDS011;21661;50.794;-1.066;2023-04-03T02:14:05;13.98;;;2.20;;
35558;SDS011;21661;50.794;-1.066;2023-04-03T02:16:31;13.63;;;2.35;;
35558;SDS011;21661;50.794;-1.066;2023-04-03T02:18:56;12.18;;;2.15;;
35558;SDS011;21661;50.794;-1.066;2023-04-03T02:21:22;7.78;;;2.08;;
35558;SDS011;21661;50.794;-1.066;2023-04-03T02:23:48;9.68;;;2.13;;
35558;SDS011;21661;50.794;-1.066;2023-04-03T02:26:14;8.10;;;2.15;;
35558;SDS011;21661;50.794;-1.066;2023-04-03T02:28:41;8.40;;;1.98;;
35558;SDS011;21661;50.794;-1.066;2023-04-03T02:31:08;14.02;;;2.50;;
35558;SDS011;21661;50.794;-1.066;2023-04-03T02:33:34;9.63;;;2.00;;
35558;SDS011;21661;50.794;-1.066;2023-04-03T02:36:02;10.48;;;2.10;;
35558;SDS011;21661;50.794;-1.066;2023-04-03T02:38:31;7.57;;;1.98;;
35558;SDS011;21661;50.794;-1.066;2023-04-03T02:41:01;11.05;;;2.30;;
35558;SDS011;21661;50.794;-1.066;2023-04-03T02:43:31;9.38;;;2.22;;
35558;SDS011;21661;50.794;-1.066;2023-04-03T02:45:56;12.82;;;3.20;;
35558;SDS011;21661;50.794;-1.066;2023-04-03T02:48:22;13.32;;;3.13;;
35558;SDS011;21661;50.794;-1.066;2023-04-03T02:50:48;8.15;;;1.98;;
35558;SDS011;21661;50.794;-1.066;2023-04-03T02:53:14;7.90;;;2.20;;
35558;SDS011;21661;50.794;-1.066;2023-04-03T02:55:40;6.53;;;2.00;;
35558;SDS011;21661;50.794;-1.066;2023-04-03T02:58:06;9.27;;;1.90;;
35558;SDS011;21661;50.794;-1.066;2023-04-03T03:00:31;10.68;;;2.20;;
35558;SDS011;21661;50.794;-1.066;2023-04-03T03:02:57;9.88;;;2.20;;
35558;SDS011;21661;50.794;-1.066;2023-04-03T03:05:22;9.70;;;2.05;;
35558;SDS011;21661;50.794;-1.066;2023-04-03T03:07:48;10.02;;;2.30;;
35558;SDS011;21661;50.794;-1.066;2023-04-03T03:10:14;10.77;;;2.15;;
35558;SDS011;21661;50.794;-1.066;2023-04-03T03:12:40;10.20;;;2.13;;
35558;SDS011;21661;50.794;-1.066;2023-04-03T03:15:06;8.77;;;2.00;;
35558;SDS011;21661;50.794;-1.066;2023-04-03T03:17:32;4.55;;;1.73;;
35558;SDS011;21661;50.794;-1.066;2023-04-03T03:19:57;9.23;;;2.10;;
35558;SDS011;21661;50.794;-1.066;2023-04-03T03:22:23;5.82;;;1.65;;
35558;SDS011;21661;50.794;-1.066;2023-04-03T03:24:49;9.57;;;2.25;;
35558;SDS011;21661;50.794;-1.066;2023-04-03T03:27:14;9.93;;;2.05;;
35558;SDS011;21661;50.794;-1.066;2023-04-03T03:29:41;10.13;;;2.20;;
35558;SDS011;21661;50.794;-1.066;2023-04-03T03:32:07;9.73;;;2.28;;
35558;SDS011;21661;50.794;-1.066;2023-04-03T03:34:33;10.55;;;2.28;;
35558;SDS011;21661;50.794;-1.066;2023-04-03T03:36:58;6.03;;;1.60;;
35558;SDS011;21661;50.794;-1.066;2023-04-03T03:39:24;14.05;;;2.40;;
35558;SDS011;21661;50.794;-1.066;2023-04-03T03:41:50;9.60;;;2.15;;
35558;SDS011;21661;50.794;-1.066;2023-04-03T03:44:18;10.55;;;2.15;;
35558;SDS011;21661;50.794;-1.066;2023-04-03T03:46:44;7.43;;;1.85;;
35558;SDS011;21661;50.794;-1.066;2023-04-03T03:49:10;10.73;;;1.80;;
35558;SDS011;21661;50.794;-1.066;2023-04-03T03:51:36;8.35;;;1.90;;
35558;SDS011;21661;50.794;-1.066;2023-04-03T03:54:02;8.05;;;1.90;;
35558;SDS011;21661;50.794;-1.066;2023-04-03T03:56:28;12.23;;;1.77;;
35558;SDS011;21661;50.794;-1.066;2023-04-03T03:58:54;4.60;;;1.80;;
35558;SDS011;21661;50.794;-1.066;2023-04-03T04:01:21;6.78;;;2.03;;
35558;SDS011;21661;50.794;-1.066;2023-04-03T04:03:47;8.27;;;1.70;;
35558;SDS011;21661;50.794;-1.066;2023-04-03T04:06:13;7.40;;;1.60;;
35558;SDS011;21661;50.794;-1.066;2023-04-03T04:08:39;9.63;;;2.33;;
35558;SDS011;21661;50.794;-1.066;2023-04-03T04:11:05;8.60;;;2.10;;
35558;SDS011;21661;50.794;-1.066;2023-04-03T04:13:30;6.38;;;1.90;;
35558;SDS011;21661;50.794;-1.066;2023-04-03T04:15:56;10.77;;;2.00;;
35558;SDS011;21661;50.794;-1.066;2023-04-03T04:18:22;8.88;;;2.00;;
35558;SDS011;21661;50.794;-1.066;2023-04-03T04:20:48;7.80;;;1.80;;
35558;SDS011;21661;50.794;-1.066;2023-04-03T04:23:14;8.82;;;1.35;;
35558;SDS011;21661;50.794;-1.066;2023-04-03T04:25:41;10.02;;;2.35;;
35558;SDS011;21661;50.794;-1.066;2023-04-03T04:28:08;11.60;;;1.50;;
35558;SDS011;21661;50.794;-1.066;2023-04-03T04:30:34;10.80;;;2.00;;
35558;SDS011;21661;50.794;-1.066;2023-04-03T04:33:00;8.75;;;2.10;;
35558;SDS011;21661;50.794;-1.066;2023-04-03T04:35:25;7.30;;;1.98;;
35558;SDS011;21661;50.794;-1.066;2023-04-03T04:37:51;8.10;;;1.67;;
35558;SDS011;21661;50.794;-1.066;2023-04-03T04:40:17;7.43;;;1.65;;
35558;SDS011;21661;50.794;-1.066;2023-04-03T04:42:42;8.27;;;1.60;;
35558;SDS011;21661;50.794;-1.066;2023-04-03T04:45:08;10.70;;;2.00;;
35558;SDS011;21661;50.794;-1.066;2023-04-03T04:47:34;8.68;;;1.50;;
35558;SDS011;21661;50.794;-1.066;2023-04-03T04:50:00;7.35;;;2.00;;
35558;SDS011;21661;50.794;-1.066;2023-04-03T04:52:25;10.25;;;2.30;;
35558;SDS011;21661;50.794;-1.066;2023-04-03T04:54:51;8.95;;;2.35;;
35558;SDS011;21661;50.794;-1.066;2023-04-03T04:57:17;8.98;;;1.67;;
35558;SDS011;21661;50.794;-1.066;2023-04-03T04:59:42;11.18;;;1.73;;
35558;SDS011;21661;50.794;-1.066;2023-04-03T05:02:08;6.95;;;2.20;;
35558;SDS011;21661;50.794;-1.066;2023-04-03T05:04:34;7.82;;;2.63;;
35558;SDS011;21661;50.794;-1.066;2023-04-03T05:06:59;7.55;;;2.50;;
35558;SDS011;21661;50.794;-1.066;2023-04-03T05:09:25;9.10;;;2.70;;
35558;SDS011;21661;50.794;-1.066;2023-04-03T05:11:51;9.75;;;2.40;;
35558;SDS011;21661;50.794;-1.066;2023-04-03T05:14:16;7.32;;;2.00;;
35558;SDS011;21661;50.794;-1.066;2023-04-03T05:16:42;7.63;;;2.05;;
35558;SDS011;21661;50.794;-1.066;2023-04-03T05:19:08;8.93;;;1.70;;
35558;SDS011;21661;50.794;-1.066;2023-04-03T05:21:33;9.93;;;1.70;;
35558;SDS011;21661;50.794;-1.066;2023-04-03T05:23:59;9.02;;;1.88;;
35558;SDS011;21661;50.794;-1.066;2023-04-03T05:26:27;14.20;;;2.25;;
35558;SDS011;21661;50.794;-1.066;2023-04-03T05:28:56;5.63;;;1.50;;
35558;SDS011;21661;50.794;-1.066;2023-04-03T05:31:22;8.82;;;1.83;;
35558;SDS011;21661;50.794;-1.066;2023-04-03T05:33:48;18.70;;;3.80;;
35558;SDS011;21661;50.794;-1.066;2023-04-03T05:36:14;9.48;;;1.80;;
35558;SDS011;21661;50.794;-1.066;2023-04-03T05:38:40;9.43;;;2.20;;
35558;SDS011;21661;50.794;-1.066;2023-04-03T05:41:06;8.88;;;1.92;;
35558;SDS011;21661;50.794;-1.066;2023-04-03T05:43:31;9.70;;;1.85;;
35558;SDS011;21661;50.794;-1.066;2023-04-03T05:45:59;12.00;;;2.97;;
35558;SDS011;21661;50.794;-1.066;2023-04-03T05:48:25;8.52;;;2.05;;
35558;SDS011;21661;50.794;-1.066;2023-04-03T05:50:51;11.63;;;1.88;;
35558;SDS011;21661;50.794;-1.066;2023-04-03T05:53:29;11.82;;;2.60;;
35558;SDS011;21661;50.794;-1.066;2023-04-03T05:55:58;12.18;;;2.90;;
35558;SDS011;21661;50.794;-1.066;2023-04-03T05:58:23;8.65;;;2.58;;
35558;SDS011;21661;50.794;-1.066;2023-04-03T06:00:49;7.68;;;2.20;;
35558;SDS011;21661;50.794;-1.066;2023-04-03T06:03:15;12.18;;;2.72;;
35558;SDS011;21661;50.794;-1.066;2023-04-03T06:05:41;9.23;;;2.03;;
35558;SDS011;21661;50.794;-1.066;2023-04-03T06:08:10;12.18;;;2.53;;
35558;SDS011;21661;50.794;-1.066;2023-04-03T06:10:36;11.43;;;2.42;;
35558;SDS011;21661;50.794;-1.066;2023-04-03T06:13:02;8.15;;;2.50;;
35558;SDS011;21661;50.794;-1.066;2023-04-03T06:15:27;8.30;;;2.22;;
35558;SDS011;21661;50.794;-1.066;2023-04-03T06:17:53;6.95;;;2.13;;
35558;SDS011;21661;50.794;-1.066;2023-04-03T06:20:19;8.68;;;2.50;;
35558;SDS011;21661;50.794;-1.066;2023-04-03T06:22:45;15.50;;;3.47;;
35558;SDS011;21661;50.794;-1.066;2023-04-03T06:25:11;9.63;;;2.42;;
35558;SDS011;21661;50.794;-1.066;2023-04-03T06:27:37;8.18;;;2.50;;
35558;SDS011;21661;50.794;-1.066;2023-04-03T06:30:03;9.98;;;3.65;;
35558;SDS011;21661;50.794;-1.066;2023-04-03T06:32:30;10.52;;;3.70;;
35558;SDS011;21661;50.794;-1.066;2023-04-03T06:34:56;10.18;;;3.35;;
35558;SDS011;21661;50.794;-1.066;2023-04-03T06:37:22;11.57;;;3.17;;
35558;SDS011;21661;50.794;-1.066;2023-04-03T06:39:51;9.38;;;3.53;;
35558;SDS011;21661;50.794;-1.066;2023-04-03T06:42:16;12.13;;;3.22;;
35558;SDS011;21661;50.794;-1.066;2023-04-03T06:44:42;10.20;;;3.38;;
35558;SDS011;21661;50.794;-1.066;2023-04-03T06:47:11;12.77;;;5.40;;
35558;SDS011;21661;50.794;-1.066;2023-04-03T06:49:38;10.23;;;2.75;;
35558;SDS011;21661;50.794;-1.066;2023-04-03T06:52:04;16.70;;;3.22;;
35558;SDS011;21661;50.794;-1.066;2023-04-03T06:54:30;11.43;;;2.95;;
35558;SDS011;21661;50.794;-1.066;2023-04-03T06:56:56;10.65;;;2.72;;
35558;SDS011;21661;50.794;-1.066;2023-04-03T06:59:22;11.88;;;3.05;;
35558;SDS011;21661;50.794;-1.066;2023-04-03T07:01:49;14.52;;;3.67;;
35558;SDS011;21661;50.794;-1.066;2023-04-03T07:04:15;9.73;;;3.35;;
35558;SDS011;21661;50.794;-1.066;2023-04-03T07:06:41;10.25;;;3.33;;
35558;SDS011;21661;50.794;-1.066;2023-04-03T07:09:08;9.70;;;3.47;;
35558;SDS011;21661;50.794;-1.066;2023-04-03T07:11:34;10.88;;;2.70;;
35558;SDS011;21661;50.794;-1.066;2023-04-03T07:14:01;9.18;;;3.20;;
35558;SDS011;21661;50.794;-1.066;2023-04-03T07:16:27;13.55;;;3.38;;
35558;SDS011;21661;50.794;-1.066;2023-04-03T07:18:52;9.82;;;3.28;;
35558;SDS011;21661;50.794;-1.066;2023-04-03T07:21:18;12.35;;;2.88;;
35558;SDS011;21661;50.794;-1.066;2023-04-03T07:23:44;11.43;;;3.10;;
35558;SDS011;21661;50.794;-1.066;2023-04-03T07:26:10;8.82;;;3.28;;
35558;SDS011;21661;50.794;-1.066;2023-04-03T07:28:35;6.78;;;3.20;;
35558;SDS011;21661;50.794;-1.066;2023-04-03T07:31:02;14.70;;;3.90;;
35558;SDS011;21661;50.794;-1.066;2023-04-03T07:33:31;11.02;;;3.35;;
35558;SDS011;21661;50.794;-1.066;2023-04-03T07:35:57;10.35;;;3.33;;
35558;SDS011;21661;50.794;-1.066;2023-04-03T07:38:23;11.50;;;3.08;;
35558;SDS011;21661;50.794;-1.066;2023-04-03T07:40:49;10.02;;;3.40;;
35558;SDS011;21661;50.794;-1.066;2023-04-03T07:43:17;10.90;;;3.20;;
35558;SDS011;21661;50.794;-1.066;2023-04-03T07:45:43;22.25;;;4.18;;
35558;SDS011;21661;50.794;-1.066;2023-04-03T07:48:10;7.30;;;3.50;;
35558;SDS011;21661;50.794;-1.066;2023-04-03T07:50:36;11.35;;;3.30;;
35558;SDS011;21661;50.794;-1.066;2023-04-03T07:53:02;15.73;;;3.72;;
35558;SDS011;21661;50.794;-1.066;2023-04-03T07:55:28;11.05;;;3.28;;
35558;SDS011;21661;50.794;-1.066;2023-04-03T07:57:54;15.75;;;4.00;;
35558;SDS011;21661;50.794;-1.066;2023-04-03T08:00:20;15.43;;;5.03;;
35558;SDS011;21661;50.794;-1.066;2023-04-03T08:02:46;13.05;;;4.15;;
35558;SDS011;21661;50.794;-1.066;2023-04-03T08:05:19;14.13;;;5.20;;
35558;SDS011;21661;50.794;-1.066;2023-04-03T08:07:46;10.98;;;5.10;;
35558;SDS011;21661;50.794;-1.066;2023-04-03T08:10:12;9.98;;;4.40;;
35558;SDS011;21661;50.794;-1.066;2023-04-03T08:12:38;16.88;;;4.93;;
35558;SDS011;21661;50.794;-1.066;2023-04-03T08:15:04;12.05;;;4.43;;
35558;SDS011;21661;50.794;-1.066;2023-04-03T08:17:31;10.73;;;4.85;;
35558;SDS011;21661;50.794;-1.066;2023-04-03T08:19:57;12.40;;;4.60;;
35558;SDS011;21661;50.794;-1.066;2023-04-03T08:22:22;11.30;;;5.28;;
35558;SDS011;21661;50.794;-1.066;2023-04-03T08:24:48;15.07;;;5.70;;
35558;SDS011;21661;50.794;-1.066;2023-04-03T08:27:13;12.00;;;5.70;;
35558;SDS011;21661;50.794;-1.066;2023-04-03T08:29:39;16.38;;;6.53;;
35558;SDS011;21661;50.794;-1.066;2023-04-03T08:32:05;11.90;;;5.75;;
35558;SDS011;21661;50.794;-1.066;2023-04-03T08:34:31;16.50;;;5.55;;
35558;SDS011;21661;50.794;-1.066;2023-04-03T08:36:59;13.23;;;5.90;;
35558;SDS011;21661;50.794;-1.066;2023-04-03T08:39:28;16.05;;;6.07;;
35558;SDS011;21661;50.794;-1.066;2023-04-03T08:41:55;14.55;;;6.28;;
35558;SDS011;21661;50.794;-1.066;2023-04-03T08:44:25;16.15;;;7.47;;
35558;SDS011;21661;50.794;-1.066;2023-04-03T08:47:11;14.38;;;7.15;;
35558;SDS011;21661;50.794;-1.066;2023-04-03T08:58:00;16.60;;;7.60;;
35558;SDS011;21661;50.794;-1.066;2023-04-03T09:03:16;14.32;;;7.25;;
35558;SDS011;21661;50.794;-1.066;2023-04-03T09:05:54;14.25;;;7.45;;
35558;SDS011;21661;50.794;-1.066;2023-04-03T09:17:29;17.85;;;8.00;;
35558;SDS011;21661;50.794;-1.066;2023-04-03T09:22:45;13.02;;;6.97;;
35558;SDS011;21661;50.794;-1.066;2023-04-03T09:25:14;16.98;;;7.22;;
35558;SDS011;21661;50.794;-1.066;2023-04-03T09:27:43;13.98;;;6.53;;
35558;SDS011;21661;50.794;-1.066;2023-04-03T09:30:14;17.45;;;7.40;;
35558;SDS011;21661;50.794;-1.066;2023-04-03T09:32:41;12.27;;;6.07;;
35558;SDS011;21661;50.794;-1.066;2023-04-03T09:37:45;12.20;;;5.30;;
35558;SDS011;21661;50.794;-1.066;2023-04-03T09:42:51;11.68;;;5.25;;
35558;SDS011;21661;50.794;-1.066;2023-04-03T09:45:22;11.93;;;5.28;;
35558;SDS011;21661;50.794;-1.066;2023-04-03T09:48:03;10.00;;;5.18;;
35558;SDS011;21661;50.794;-1.066;2023-04-03T09:50:29;8.07;;;4.30;;
35558;SDS011;21661;50.794;-1.066;2023-04-03T09:52:56;8.57;;;5.13;;
35558;SDS011;21661;50.794;-1.066;2023-04-03T09:55:25;9.00;;;4.38;;
35558;SDS011;21661;50.794;-1.066;2023-04-03T09:57:54;8.00;;;4.43;;
35558;SDS011;21661;50.794;-1.066;2023-04-03T10:02:51;15.95;;;6.03;;
35558;SDS011;21661;50.794;-1.066;2023-04-03T10:08:07;11.68;;;5.68;;
35558;SDS011;21661;50.794;-1.066;2023-04-03T10:10:33;12.80;;;5.78;;
35558;SDS011;21661;50.794;-1.066;2023-04-03T10:15:32;7.78;;;4.70;;
35558;SDS011;21661;50.794;-1.066;2023-04-03T10:18:08;9.32;;;5.50;;
35558;SDS011;21661;50.794;-1.066;2023-04-03T10:20:53;9.50;;;5.18;;
35558;SDS011;21661;50.794;-1.066;2023-04-03T10:23:24;9.00;;;5.45;;
35558;SDS011;21661;50.794;-1.066;2023-04-03T10:37:25;12.07;;;5.68;;
35558;SDS011;21661;50.794;-1.066;2023-04-03T10:43:20;10.50;;;5.10;;
35558;SDS011;21661;50.794;-1.066;2023-04-03T10:48:18;8.15;;;4.00;;
35558;SDS011;21661;50.794;-1.066;2023-04-03T10:56:41;10.32;;;4.97;;
35558;SDS011;21661;50.794;-1.066;2023-04-03T10:59:18;10.32;;;4.95;;
35558;SDS011;21661;50.794;-1.066;2023-04-03T11:01:51;7.50;;;4.72;;
35558;SDS011;21661;50.794;-1.066;2023-04-03T11:06:50;9.80;;;4.82;;
35558;SDS011;21661;50.794;-1.066;2023-04-03T11:09:24;9.70;;;4.78;;
35558;SDS011;21661;50.794;-1.066;2023-04-03T11:11:55;11.50;;;4.60;;
35558;SDS011;21661;50.794;-1.066;2023-04-03T11:14:27;8.60;;;5.50;;
35558;SDS011;21661;50.794;-1.066;2023-04-03T11:22:36;8.85;;;5.57;;
35558;SDS011;21661;50.794;-1.066;2023-04-03T11:30:16;8.80;;;5.05;;
35558;SDS011;21661;50.794;-1.066;2023-04-03T11:35:35;7.05;;;4.40;;
35558;SDS011;21661;50.794;-1.066;2023-04-03T11:38:02;12.15;;;4.72;;
35558;SDS011;21661;50.794;-1.066;2023-04-03T11:40:32;8.40;;;5.50;;
35558;SDS011;21661;50.794;-1.066;2023-04-03T11:45:28;8.80;;;5.22;;
35558;SDS011;21661;50.794;-1.066;2023-04-03T11:48:01;9.82;;;6.32;;
35558;SDS011;21661;50.794;-1.066;2023-04-03T12:00:55;11.48;;;7.20;;
35558;SDS011;21661;50.794;-1.066;2023-04-03T12:16:26;11.18;;;7.45;;
35558;SDS011;21661;50.794;-1.066;2023-04-03T12:24:04;16.85;;;7.40;;
35558;SDS011;21661;50.794;-1.066;2023-04-03T12:26:50;15.75;;;6.88;;
35558;SDS011;21661;50.794;-1.066;2023-04-03T12:29:33;14.02;;;6.95;;
35558;SDS011;21661;50.794;-1.066;2023-04-03T12:45:23;8.27;;;5.18;;
35558;SDS011;21661;50.794;-1.066;2023-04-03T12:47:51;13.77;;;5.45;;
35558;SDS011;21661;50.794;-1.066;2023-04-03T12:53:04;10.98;;;5.15;;
35558;SDS011;21661;50.794;-1.066;2023-04-03T12:55:36;9.73;;;4.72;;
35558;SDS011;21661;50.794;-1.066;2023-04-03T13:00:58;10.43;;;4.53;;
35558;SDS011;21661;50.794;-1.066;2023-04-03T13:03:28;11.73;;;3.53;;
35558;SDS011;21661;50.794;-1.066;2023-04-03T13:05:57;11.13;;;3.97;;
35558;SDS011;21661;50.794;-1.066;2023-04-03T13:08:25;7.78;;;3.53;;
35558;SDS011;21661;50.794;-1.066;2023-04-03T13:13:19;8.85;;;3.20;;
35558;SDS011;21661;50.794;-1.066;2023-04-03T13:15:48;9.73;;;3.88;;
35558;SDS011;21661;50.794;-1.066;2023-04-03T13:18:25;8.02;;;2.90;;
35558;SDS011;21661;50.794;-1.066;2023-04-03T13:20:51;8.27;;;3.10;;
35558;SDS011;21661;50.794;-1.066;2023-04-03T13:23:18;9.23;;;2.92;;
35558;SDS011;21661;50.794;-1.066;2023-04-03T13:25:45;9.40;;;3.05;;
35558;SDS011;21661;50.794;-1.066;2023-04-03T13:28:14;9.15;;;2.80;;
35558;SDS011;21661;50.794;-1.066;2023-04-03T13:30:57;7.40;;;2.38;;
35558;SDS011;21661;50.794;-1.066;2023-04-03T13:33:25;9.52;;;2.72;;
35558;SDS011;21661;50.794;-1.066;2023-04-03T13:36:03;11.40;;;3.00;;
35558;SDS011;21661;50.794;-1.066;2023-04-03T13:38:40;5.07;;;2.33;;
35558;SDS011;21661;50.794;-1.066;2023-04-03T13:41:22;5.07;;;2.05;;
35558;SDS011;21661;50.794;-1.066;2023-04-03T13:43:50;7.55;;;2.38;;
35558;SDS011;21661;50.794;-1.066;2023-04-03T13:48:43;10.02;;;2.72;;
35558;SDS011;21661;50.794;-1.066;2023-04-03T13:53:52;7.00;;;2.63;;
35558;SDS011;21661;50.794;-1.066;2023-04-03T13:56:23;5.90;;;2.45;;
35558;SDS011;21661;50.794;-1.066;2023-04-03T13:59:18;9.88;;;2.50;;
35558;SDS011;21661;50.794;-1.066;2023-04-03T14:04:29;9.25;;;2.13;;
35558;SDS011;21661;50.794;-1.066;2023-04-03T14:06:57;6.85;;;2.40;;
35558;SDS011;21661;50.794;-1.066;2023-04-03T14:09:24;7.70;;;2.65;;
35558;SDS011;21661;50.794;-1.066;2023-04-03T14:11:55;6.55;;;2.47;;
35558;SDS011;21661;50.794;-1.066;2023-04-03T14:14:30;6.40;;;2.28;;
35558;SDS011;21661;50.794;-1.066;2023-04-03T14:19:32;8.27;;;2.53;;
35558;SDS011;21661;50.794;-1.066;2023-04-03T14:21:59;10.68;;;2.42;;
35558;SDS011;21661;50.794;-1.066;2023-04-03T14:24:28;5.07;;;2.30;;
35558;SDS011;21661;50.794;-1.066;2023-04-03T14:26:54;6.45;;;2.35;;
35558;SDS011;21661;50.794;-1.066;2023-04-03T14:29:21;6.85;;;2.40;;
35558;SDS011;21661;50.794;-1.066;2023-04-03T14:31:48;8.35;;;2.40;;
35558;SDS011;21661;50.794;-1.066;2023-04-03T14:34:14;7.90;;;2.47;;
35558;SDS011;21661;50.794;-1.066;2023-04-03T14:36:41;7.20;;;2.80;;
35558;SDS011;21661;50.794;-1.066;2023-04-03T14:39:10;8.73;;;2.45;;
35558;SDS011;21661;50.794;-1.066;2023-04-03T14:41:41;7.53;;;2.47;;
35558;SDS011;21661;50.794;-1.066;2023-04-03T14:44:07;5.88;;;2.50;;
35558;SDS011;21661;50.794;-1.066;2023-04-03T14:46:34;7.10;;;2.92;;
35558;SDS011;21661;50.794;-1.066;2023-04-03T14:49:03;6.72;;;2.60;;
35558;SDS011;21661;50.794;-1.066;2023-04-03T14:51:36;8.70;;;2.83;;
35558;SDS011;21661;50.794;-1.066;2023-04-03T14:54:02;7.68;;;3.03;;
35558;SDS011;21661;50.794;-1.066;2023-04-03T14:56:28;7.32;;;2.70;;
35558;SDS011;21661;50.794;-1.066;2023-04-03T14:59:00;8.65;;;3.00;;
35558;SDS011;21661;50.794;-1.066;2023-04-03T15:01:27;11.43;;;3.40;;
35558;SDS011;21661;50.794;-1.066;2023-04-03T15:03:53;9.00;;;2.70;;
35558;SDS011;21661;50.794;-1.066;2023-04-03T15:06:19;9.43;;;2.65;;
35558;SDS011;21661;50.794;-1.066;2023-04-03T15:08:45;5.57;;;2.92;;
35558;SDS011;21661;50.794;-1.066;2023-04-03T15:11:12;7.97;;;3.03;;
35558;SDS011;21661;50.794;-1.066;2023-04-03T15:13:38;8.43;;;3.00;;
35558;SDS011;21661;50.794;-1.066;2023-04-03T15:16:05;8.60;;;3.05;;
35558;SDS011;21661;50.794;-1.066;2023-04-03T15:18:41;6.78;;;2.75;;
35558;SDS011;21661;50.794;-1.066;2023-04-03T15:21:07;9.18;;;3.30;;
35558;SDS011;21661;50.794;-1.066;2023-04-03T15:23:33;6.45;;;3.17;;
35558;SDS011;21661;50.794;-1.066;2023-04-03T15:25:58;10.23;;;3.10;;
35558;SDS011;21661;50.794;-1.066;2023-04-03T15:28:28;10.82;;;3.42;;
35558;SDS011;21661;50.794;-1.066;2023-04-03T15:30:55;5.78;;;3.20;;
35558;SDS011;21661;50.794;-1.066;2023-04-03T15:33:21;11.90;;;3.25;;
35558;SDS011;21661;50.794;-1.066;2023-04-03T15:35:47;9.50;;;4.03;;
35558;SDS011;21661;50.794;-1.066;2023-04-03T15:38:13;9.57;;;3.53;;
35558;SDS011;21661;50.794;-1.066;2023-04-03T15:40:39;6.07;;;2.80;;
35558;SDS011;21661;50.794;-1.066;2023-04-03T15:43:06;10.38;;;2.55;;
35558;SDS011;21661;50.794;-1.066;2023-04-03T15:45:32;6.93;;;3.78;;
35558;SDS011;21661;50.794;-1.066;2023-04-03T15:48:00;10.35;;;4.00;;
35558;SDS011;21661;50.794;-1.066;2023-04-03T15:50:27;9.65;;;3.50;;
35558;SDS011;21661;50.794;-1.066;2023-04-03T15:52:53;7.35;;;2.78;;
35558;SDS011;21661;50.794;-1.066;2023-04-03T15:55:23;10.75;;;3.42;;
35558;SDS011;21661;50.794;-1.066;2023-04-03T15:57:51;8.75;;;3.45;;
35558;SDS011;21661;50.794;-1.066;2023-04-03T16:00:17;7.10;;;3.92;;
35558;SDS011;21661;50.794;-1.066;2023-04-03T16:02:44;10.43;;;3.17;;
35558;SDS011;21661;50.794;-1.066;2023-04-03T16:05:11;11.65;;;3.78;;
35558;SDS011;21661;50.794;-1.066;2023-04-03T16:07:38;11.10;;;3.15;;
35558;SDS011;21661;50.794;-1.066;2023-04-03T16:10:05;13.32;;;3.53;;
35558;SDS011;21661;50.794;-1.066;2023-04-03T16:12:35;10.33;;;4.20;;
35558;SDS011;21661;50.794;-1.066;2023-04-03T16:15:00;10.07;;;3.53;;
35558;SDS011;21661;50.794;-1.066;2023-04-03T16:17:27;8.70;;;4.20;;
35558;SDS011;21661;50.794;-1.066;2023-04-03T16:19:53;10.77;;;3.67;;
35558;SDS011;21661;50.794;-1.066;2023-04-03T16:22:20;8.48;;;3.58;;
35558;SDS011;21661;50.794;-1.066;2023-04-03T16:24:48;9.68;;;3.50;;
35558;SDS011;21661;50.794;-1.066;2023-04-03T16:27:14;10.45;;;4.28;;
35558;SDS011;21661;50.794;-1.066;2023-04-03T16:29:40;9.63;;;3.53;;
35558;SDS011;21661;50.794;-1.066;2023-04-03T16:32:06;12.95;;;3.58;;
35558;SDS011;21661;50.794;-1.066;2023-04-03T16:34:31;10.00;;;3.40;;
35558;SDS011;21661;50.794;-1.066;2023-04-03T16:36:57;8.45;;;3.85;;
35558;SDS011;21661;50.794;-1.066;2023-04-03T16:39:23;9.32;;;3.13;;
35558;SDS011;21661;50.794;-1.066;2023-04-03T16:41:49;8.48;;;3.45;;
35558;SDS011;21661;50.794;-1.066;2023-04-03T16:44:14;14.60;;;3.38;;
35558;SDS011;21661;50.794;-1.066;2023-04-03T16:46:40;10.88;;;3.63;;
35558;SDS011;21661;50.794;-1.066;2023-04-03T16:49:06;10.07;;;3.80;;
35558;SDS011;21661;50.794;-1.066;2023-04-03T16:51:31;9.80;;;3.35;;
35558;SDS011;21661;50.794;-1.066;2023-04-03T16:53:57;11.80;;;3.70;;
35558;SDS011;21661;50.794;-1.066;2023-04-03T16:56:23;9.73;;;3.10;;